createdAt,value
2022-08-26T00:01:24.219Z,98207.06
2022-08-26T00:03:56.450Z,98204.69
2022-08-26T00:06:23.622Z,98211.84
2022-08-26T00:08:50.394Z,98205.41
2022-08-26T00:11:26.610Z,98204.94
2022-08-26T00:13:54.944Z,98198.84
2022-08-26T00:16:23.615Z,98200.13
2022-08-26T00:18:50.804Z,98196.78
2022-08-26T00:21:17.474Z,98209.19
2022-08-26T00:23:44.942Z,98198.22
2022-08-26T00:26:13.239Z,98205.25
2022-08-26T00:28:40.931Z,98204.06
2022-08-26T00:31:07.954Z,98204.31
2022-08-26T00:33:38.485Z,98207.88
2022-08-26T00:36:05.988Z,98202.50
2022-08-26T00:38:33.019Z,98196.91
2022-08-26T00:40:59.678Z,98197.13
2022-08-26T00:43:27.521Z,98206.44
2022-08-26T00:46:00.360Z,98207.53
2022-08-26T00:48:32.501Z,98205.88
2022-08-26T00:51:11.654Z,98202.28
2022-08-26T00:53:47.977Z,98203.13
2022-08-26T00:56:29.878Z,98200.84
2022-08-26T00:59:01.147Z,98198.09
2022-08-26T01:01:28.435Z,98196.16
2022-08-26T01:03:57.928Z,98196.78
2022-08-26T01:06:25.142Z,98203.81
2022-08-26T01:08:53.269Z,98202.28
2022-08-26T01:11:20.910Z,98202.63
2022-08-26T01:13:48.866Z,98203.91
2022-08-26T01:16:17.102Z,98196.88
2022-08-26T01:18:45.005Z,98195.31
2022-08-26T01:21:25.187Z,98195.09
2022-08-26T01:23:57.712Z,98192.44
2022-08-26T01:26:32.419Z,98195.09
2022-08-26T01:29:02.980Z,98190.06
2022-08-26T01:31:39.353Z,98193.66
2022-08-26T01:34:27.648Z,98195.91
2022-08-26T01:37:15.973Z,98191.97
2022-08-26T01:39:44.906Z,98190.91
2022-08-26T01:42:14.656Z,98193.91
2022-08-26T01:44:57.659Z,98183.16
2022-08-26T01:47:27.949Z,98189.81
2022-08-26T01:50:00.699Z,98187.19
2022-08-26T01:52:30.454Z,98196.84
2022-08-26T01:55:00.019Z,98185.28
2022-08-26T01:57:27.412Z,98194.94
2022-08-26T01:59:58.928Z,98193.59
2022-08-26T02:02:29.430Z,98188.97
2022-08-26T02:05:04.368Z,98185.50
2022-08-26T02:07:33.290Z,98192.31
2022-08-26T02:10:00.847Z,98193.38
2022-08-26T02:12:27.694Z,98196.00
2022-08-26T02:14:59.518Z,98195.50
2022-08-26T02:17:37.595Z,98182.59
2022-08-26T02:20:06.109Z,98188.81
2022-08-26T02:22:41.325Z,98181.66
2022-08-26T02:25:32.347Z,98191.31
2022-08-26T02:27:59.087Z,98184.50
2022-08-26T02:30:32.090Z,98193.56
2022-08-26T02:33:03.234Z,98191.47
2022-08-26T02:35:32.298Z,98185.28
2022-08-26T02:38:00.417Z,98179.19
2022-08-26T02:40:31.175Z,98181.28
2022-08-26T02:42:58.027Z,98177.97
2022-08-26T02:45:26.308Z,98185.28
2022-08-26T02:47:53.837Z,98186.56
2022-08-26T02:50:20.797Z,98179.06
2022-08-26T02:52:48.674Z,98187.03
2022-08-26T02:55:15.679Z,98188.25
2022-08-26T02:57:42.366Z,98183.59
2022-08-26T03:00:11.096Z,98181.81
2022-08-26T03:02:37.769Z,98183.16
2022-08-26T03:05:04.877Z,98180.84
2022-08-26T03:07:31.542Z,98171.69
2022-08-26T03:09:59.511Z,98161.63
2022-08-26T03:12:26.602Z,98169.63
2022-08-26T03:14:53.447Z,98167.47
2022-08-26T03:17:21.193Z,98173.81
2022-08-26T03:19:50.702Z,98165.22
2022-08-26T03:22:19.601Z,98168.19
2022-08-26T03:24:47.280Z,98167.81
2022-08-26T03:27:14.459Z,98165.72
2022-08-26T03:30:00.406Z,98164.56
2022-08-26T03:32:28.056Z,98164.69
2022-08-26T03:34:56.539Z,98167.53
2022-08-26T03:37:23.499Z,98159.97
2022-08-26T03:39:50.313Z,98167.19
2022-08-26T03:42:17.129Z,98163.44
2022-08-26T03:44:48.520Z,98156.31
2022-08-26T03:47:15.804Z,98154.41
2022-08-26T03:49:42.502Z,98159.88
2022-08-26T03:52:10.498Z,98157.34
2022-08-26T03:54:37.263Z,98159.75
2022-08-26T03:57:04.303Z,98160.47
2022-08-26T03:59:31.861Z,98160.25
2022-08-26T04:01:58.624Z,98159.19
2022-08-26T04:04:25.785Z,98157.75
2022-08-26T04:06:58.467Z,98156.19
2022-08-26T04:09:26.369Z,98162.09
2022-08-26T04:11:53.937Z,98164.00
2022-08-26T04:14:23.795Z,98148.19
2022-08-26T04:16:52.118Z,98159.47
2022-08-26T04:19:20.667Z,98150.44
2022-08-26T04:21:48.906Z,98159.44
2022-08-26T04:24:16.655Z,98156.69
2022-08-26T04:26:44.545Z,98159.06
2022-08-26T04:29:18.259Z,98152.19
2022-08-26T04:31:46.937Z,98159.34
2022-08-26T04:34:15.563Z,98152.22
2022-08-26T04:36:43.193Z,98152.94
2022-08-26T04:39:19.774Z,98157.09
2022-08-26T04:41:48.497Z,98157.47
2022-08-26T04:44:16.466Z,98159.13
2022-08-26T04:46:46.965Z,98157.69
2022-08-26T04:49:13.819Z,98158.06
2022-08-26T04:51:40.785Z,98161.81
2022-08-26T04:54:08.101Z,98157.97
2022-08-26T04:56:38.190Z,98155.41
2022-08-26T04:59:08.056Z,98158.31
2022-08-26T05:01:45.552Z,98164.03
2022-08-26T05:04:13.304Z,98165.47
2022-08-26T05:06:43.143Z,98162.84
2022-08-26T05:09:10.031Z,98160.34
2022-08-26T05:11:38.420Z,98165.72
2022-08-26T05:14:06.083Z,98163.09
2022-08-26T05:16:32.837Z,98163.94
2022-08-26T05:18:59.436Z,98169.06
2022-08-26T05:21:29.139Z,98162.03
2022-08-26T05:23:56.921Z,98175.78
2022-08-26T05:26:26.463Z,98178.88
2022-08-26T05:28:54.853Z,98171.22
2022-08-26T05:31:28.055Z,98166.09
2022-08-26T05:33:57.638Z,98171.97
2022-08-26T05:36:27.385Z,98176.50
2022-08-26T05:38:55.783Z,98172.91
2022-08-26T05:41:34.004Z,98176.25
2022-08-26T05:44:02.323Z,98173.97
2022-08-26T05:46:29.827Z,98171.34
2022-08-26T05:48:57.348Z,98171.09
2022-08-26T05:51:26.292Z,98169.41
2022-08-26T05:53:54.828Z,98167.31
2022-08-26T05:56:27.660Z,98171.47
2022-08-26T05:58:58.550Z,98176.59
2022-08-26T06:01:27.648Z,98170.69
2022-08-26T06:04:01.763Z,98173.69
2022-08-26T06:06:34.418Z,98173.19
2022-08-26T06:09:04.517Z,98176.69
2022-08-26T06:11:32.630Z,98173.16
2022-08-26T06:14:03.860Z,98181.63
2022-08-26T06:16:32.320Z,98171.59
2022-08-26T06:18:59.068Z,98173.50
2022-08-26T06:21:32.915Z,98175.66
2022-08-26T06:24:27.343Z,98176.22
2022-08-26T06:27:02.355Z,98178.81
2022-08-26T06:29:31.589Z,98174.50
2022-08-26T06:31:58.603Z,98176.66
2022-08-26T06:34:30.418Z,98183.41
2022-08-26T06:37:02.440Z,98174.84
2022-08-26T06:39:30.788Z,98179.31
2022-08-26T06:41:59.079Z,98174.69
2022-08-26T06:44:27.713Z,98179.41
2022-08-26T06:46:54.816Z,98170.94
2022-08-26T06:49:26.919Z,98173.59
2022-08-26T06:51:58.377Z,98164.94
2022-08-26T06:54:25.724Z,98172.91
2022-08-26T06:56:52.395Z,98172.31
2022-08-26T06:59:18.984Z,98171.16
2022-08-26T07:01:46.544Z,98175.88
2022-08-26T07:04:15.732Z,98166.97
2022-08-26T07:06:48.954Z,98171.75
2022-08-26T07:09:16.932Z,98161.94
2022-08-26T07:11:44.690Z,98167.09
2022-08-26T07:14:12.644Z,98171.91
2022-08-26T07:16:41.186Z,98166.44
2022-08-26T07:19:10.563Z,98163.50
2022-08-26T07:21:40.445Z,98158.94
2022-08-26T07:24:08.440Z,98163.94
2022-08-26T07:26:38.246Z,98154.09
2022-08-26T07:29:05.466Z,98166.97
2022-08-26T07:31:39.589Z,98157.91
2022-08-26T07:34:09.384Z,98151.34
2022-08-26T07:36:36.444Z,98156.66
2022-08-26T07:39:03.530Z,98154.34
2022-08-26T07:44:01.693Z,98155.66
2022-08-26T07:46:30.443Z,98146.69
2022-08-26T07:48:58.353Z,98151.66
2022-08-26T07:51:26.424Z,98149.94
2022-08-26T07:53:54.309Z,98154.97
2022-08-26T07:56:23.222Z,98155.84
2022-08-26T07:58:51.835Z,98148.34
2022-08-26T08:01:24.041Z,98159.13
2022-08-26T08:03:53.345Z,98152.53
2022-08-26T08:06:21.405Z,98154.50
2022-08-26T08:08:50.728Z,98148.50
2022-08-26T08:11:21.171Z,98159.44
2022-08-26T08:13:50.008Z,98159.09
2022-08-26T08:16:24.498Z,98153.88
2022-08-26T08:18:51.235Z,98149.41
2022-08-26T08:21:21.185Z,98144.94
2022-08-26T08:23:55.553Z,98146.28
2022-08-26T08:26:23.967Z,98145.00
2022-08-26T08:28:53.667Z,98143.00
2022-08-26T08:34:13.975Z,98135.06
2022-08-26T08:36:40.660Z,98132.69
2022-08-26T08:39:08.215Z,98133.94
2022-08-26T08:41:38.587Z,98134.78
2022-08-26T08:44:13.932Z,98128.25
2022-08-26T08:46:42.527Z,98111.75
2022-08-26T08:49:11.156Z,98114.59
2022-08-26T08:52:00.592Z,98113.56
2022-08-26T08:54:28.212Z,98125.16
2022-08-26T08:57:04.635Z,98117.16
2022-08-26T08:59:34.396Z,98120.47
2022-08-26T09:03:01.097Z,98117.47
2022-08-26T09:05:40.175Z,98120.59
2022-08-26T09:08:20.026Z,98117.97
2022-08-26T09:10:54.635Z,98112.22
2022-08-26T09:13:26.192Z,98117.16
2022-08-26T09:16:02.888Z,98114.59
2022-08-26T09:18:54.546Z,98107.03
2022-08-26T09:21:23.912Z,98107.41
2022-08-26T09:23:55.454Z,98110.44
2022-08-26T09:26:45.478Z,98105.88
2022-08-26T09:29:40.809Z,98100.59
2022-08-26T09:32:22.114Z,98106.31
2022-08-26T09:34:57.656Z,98097.38
2022-08-26T09:37:56.666Z,98098.06
2022-08-26T09:40:36.455Z,98095.00
2022-08-26T09:43:22.623Z,98094.28
2022-08-26T09:45:59.609Z,98095.25
2022-08-26T09:48:35.521Z,98091.81
2022-08-26T09:51:06.989Z,98089.97
2022-08-26T09:53:50.040Z,98079.56
2022-08-26T09:56:28.178Z,98090.88
2022-08-26T09:58:56.487Z,98082.63
2022-08-26T10:01:23.137Z,98083.66
2022-08-26T10:03:51.464Z,98081.09
2022-08-26T10:06:18.138Z,98085.53
2022-08-26T10:08:52.020Z,98085.94
2022-08-26T10:11:21.220Z,98079.81
2022-08-26T10:13:56.523Z,98082.13
2022-08-26T10:16:29.909Z,98083.56
2022-08-26T10:19:07.677Z,98068.97
2022-08-26T10:21:54.066Z,98072.75
2022-08-26T10:24:28.075Z,98066.38
2022-08-26T10:27:22.115Z,98061.09
2022-08-26T10:29:51.823Z,98061.69
2022-08-26T10:32:45.330Z,98054.41
2022-08-26T10:35:15.129Z,98062.63
2022-08-26T10:37:54.767Z,98063.31
2022-08-26T10:41:02.544Z,98060.69
2022-08-26T10:43:43.042Z,98052.91
2022-08-26T10:46:16.393Z,98050.97
2022-08-26T10:48:56.444Z,98046.47
2022-08-26T10:51:35.490Z,98046.34
2022-08-26T10:54:12.703Z,98045.75
2022-08-26T10:56:59.522Z,98040.09
2022-08-26T10:59:35.170Z,98051.81
2022-08-26T11:02:13.362Z,98036.22
2022-08-26T11:04:50.780Z,98033.50
2022-08-26T11:07:41.805Z,98028.69
2022-08-26T11:10:13.208Z,98026.44
2022-08-26T11:12:39.778Z,98027.25
2022-08-26T11:15:12.174Z,98028.94
2022-08-26T11:17:46.049Z,98017.41
2022-08-26T11:20:28.546Z,98016.78
2022-08-26T11:22:56.354Z,98013.94
2022-08-26T11:25:30.177Z,98025.03
2022-08-26T11:28:00.890Z,98022.19
2022-08-26T11:30:40.792Z,98025.22
2022-08-26T11:33:08.491Z,98025.03
2022-08-26T11:35:37.485Z,98031.88
2022-08-26T11:38:41.612Z,98017.06
2022-08-26T11:41:11.989Z,98018.84
2022-08-26T11:43:40.581Z,98008.97
2022-08-26T11:46:10.787Z,98003.88
2022-08-26T11:48:43.105Z,98001.81
2022-08-26T11:51:20.385Z,98006.56
2022-08-26T11:53:47.418Z,98000.94
2022-08-26T11:56:31.744Z,98002.59
2022-08-26T11:59:02.109Z,98014.50
2022-08-26T12:01:35.856Z,98009.44
2022-08-26T12:04:08.404Z,98011.31
2022-08-26T12:06:45.354Z,98023.59
2022-08-26T12:09:22.868Z,98021.13
2022-08-26T12:11:49.922Z,98029.78
2022-08-26T12:14:25.140Z,98034.72
2022-08-26T12:16:54.244Z,98022.22
2022-08-26T12:19:26.186Z,98017.13
2022-08-26T12:21:59.273Z,98016.00
2022-08-26T12:24:26.384Z,98006.75
2022-08-26T12:27:11.058Z,98008.47
2022-08-26T12:29:39.625Z,98011.69
2022-08-26T12:32:13.554Z,98008.94
2022-08-26T12:34:45.843Z,98020.75
2022-08-26T12:37:14.120Z,98018.16
2022-08-26T12:39:44.666Z,98012.47
2022-08-26T12:42:16.886Z,98009.84
2022-08-26T12:45:09.810Z,98004.78
2022-08-26T12:47:43.084Z,98003.16
2022-08-26T12:50:25.637Z,97995.69
2022-08-26T12:52:58.358Z,97998.56
2022-08-26T12:55:33.299Z,97989.47
2022-08-26T12:58:16.395Z,97985.34
2022-08-26T13:00:48.284Z,97982.75
2022-08-26T13:03:34.784Z,97985.72
2022-08-26T13:06:20.013Z,97988.91
2022-08-26T13:08:52.913Z,97985.75
2022-08-26T13:11:22.242Z,97993.38
2022-08-26T13:13:51.941Z,97987.44
2022-08-26T13:16:21.766Z,97984.44
2022-08-26T13:18:51.618Z,97984.13
2022-08-26T13:21:21.280Z,97985.78
2022-08-26T13:23:48.529Z,97970.38
2022-08-26T13:26:15.800Z,97968.22
2022-08-26T13:28:42.590Z,97960.88
2022-08-26T13:31:12.782Z,97966.16
2022-08-26T13:33:40.927Z,97968.47
2022-08-26T13:36:08.248Z,97980.28
2022-08-26T13:38:35.074Z,97975.94
2022-08-26T13:41:03.603Z,97976.25
2022-08-26T13:43:31.211Z,97977.78
2022-08-26T13:45:58.066Z,97981.09
2022-08-26T13:48:25.159Z,97984.69
2022-08-26T13:50:53.746Z,97981.06
2022-08-26T13:53:20.823Z,97982.72
2022-08-26T13:55:47.947Z,97982.72
2022-08-26T13:58:14.878Z,97985.03
2022-08-26T14:00:42.487Z,97990.00
2022-08-26T14:03:13.267Z,97987.72
2022-08-26T14:05:40.682Z,97989.38
2022-08-26T14:08:08.039Z,97985.53
2022-08-26T14:10:35.203Z,97984.84
2022-08-26T14:13:01.875Z,97992.66
2022-08-26T14:15:29.462Z,97989.00
2022-08-26T14:17:56.141Z,97993.63
2022-08-26T14:20:26.123Z,97992.28
2022-08-26T14:25:40.368Z,97994.41
2022-08-26T14:28:07.072Z,98001.94
2022-08-26T14:30:34.521Z,98003.56
2022-08-26T14:33:01.213Z,98000.06
2022-08-26T14:35:30.237Z,97992.88
2022-08-26T14:37:57.425Z,97993.34
2022-08-26T14:40:29.536Z,97999.69
2022-08-26T14:42:58.914Z,98002.28
2022-08-26T14:45:30.202Z,98001.19
2022-08-26T14:47:57.113Z,97997.06
2022-08-26T14:50:30.610Z,97989.38
2022-08-26T14:53:16.258Z,97980.41
2022-08-26T14:55:43.306Z,97988.00
2022-08-26T14:58:10.192Z,97986.66
2022-08-26T15:00:37.831Z,97968.59
2022-08-26T15:03:05.735Z,97966.47
2022-08-26T15:05:33.607Z,97963.31
2022-08-26T15:08:00.578Z,97957.22
2022-08-26T15:10:27.180Z,97957.81
2022-08-26T15:12:53.869Z,97957.97
2022-08-26T15:15:20.960Z,97953.13
2022-08-26T15:17:47.739Z,97954.78
2022-08-26T15:20:16.613Z,97946.00
2022-08-26T15:22:43.296Z,97952.28
2022-08-26T15:25:10.729Z,97946.16
2022-08-26T15:27:37.741Z,97941.50
2022-08-26T15:30:10.947Z,97931.94
2022-08-26T15:32:37.791Z,97927.19
2022-08-26T15:35:09.081Z,97924.56
2022-08-26T15:37:36.713Z,97927.38
2022-08-26T15:40:04.839Z,97920.41
2022-08-26T15:42:31.775Z,97921.25
2022-08-26T15:44:58.469Z,97914.63
2022-08-26T15:47:25.178Z,97917.63
2022-08-26T15:49:51.869Z,97917.63
2022-08-26T15:52:21.775Z,97905.34
2022-08-26T15:54:48.645Z,97903.53
2022-08-26T15:57:19.729Z,97898.56
2022-08-26T15:59:46.919Z,97905.34
2022-08-26T16:02:13.795Z,97900.69
2022-08-26T16:04:40.492Z,97910.41
2022-08-26T16:07:07.193Z,97917.50
2022-08-26T16:09:34.227Z,97911.03
2022-08-26T16:12:01.070Z,97908.09
2022-08-26T16:14:27.765Z,97913.38
2022-08-26T16:16:54.864Z,97910.75
2022-08-26T16:19:22.112Z,97918.34
2022-08-26T16:21:50.770Z,97911.72
2022-08-26T16:24:24.809Z,97909.22
2022-08-26T16:26:54.555Z,97902.44
2022-08-26T16:29:21.264Z,97903.41
2022-08-26T16:31:50.609Z,97895.81
2022-08-26T16:34:17.331Z,97886.22
2022-08-26T16:36:44.041Z,97880.25
2022-08-26T16:39:11.176Z,97878.56
2022-08-26T16:41:38.156Z,97879.06
2022-08-26T16:44:08.958Z,97888.97
2022-08-26T16:46:38.553Z,97885.97
2022-08-26T16:49:05.620Z,97877.84
2022-08-26T16:51:37.842Z,97891.22
2022-08-26T16:54:05.913Z,97889.03
2022-08-26T16:56:34.509Z,97885.31
2022-08-26T16:59:02.657Z,97878.69
2022-08-26T17:01:29.851Z,97877.19
2022-08-26T17:03:57.253Z,97880.00
2022-08-26T17:06:23.965Z,97885.09
2022-08-26T17:08:50.633Z,97884.84
2022-08-26T17:11:17.286Z,97883.75
2022-08-26T17:13:44.031Z,97881.28
2022-08-26T17:16:12.269Z,97873.34
2022-08-26T17:18:39.104Z,97876.25
2022-08-26T17:21:10.376Z,97874.78
2022-08-26T17:23:37.878Z,97867.97
2022-08-26T17:26:05.138Z,97863.84
2022-08-26T17:28:32.471Z,97866.94
2022-08-26T17:31:00.313Z,97863.53
2022-08-26T17:33:27.850Z,97864.97
2022-08-26T17:35:54.808Z,97871.25
2022-08-26T17:38:21.581Z,97870.19
2022-08-26T17:40:48.555Z,97872.63
2022-08-26T17:43:15.644Z,97868.38
2022-08-26T17:45:43.361Z,97869.00
2022-08-26T17:48:11.231Z,97872.66
2022-08-26T17:50:42.868Z,97871.28
2022-08-26T17:53:17.795Z,97868.94
2022-08-26T17:55:46.786Z,97874.38
2022-08-26T17:58:14.722Z,97875.19
2022-08-26T18:00:47.143Z,97878.81
2022-08-26T18:03:14.151Z,97875.09
2022-08-26T18:05:41.934Z,97880.84
2022-08-26T18:08:09.515Z,97876.56
2022-08-26T18:10:36.141Z,97890.56
2022-08-26T18:13:02.858Z,97894.50
2022-08-26T18:15:29.614Z,97898.69
2022-08-26T18:17:56.257Z,97908.47
2022-08-26T18:20:22.971Z,97902.94
2022-08-26T18:22:49.623Z,97909.50
2022-08-26T18:25:17.455Z,97919.69
2022-08-26T18:27:44.177Z,97914.13
2022-08-26T18:30:16.733Z,97908.75
2022-08-26T18:32:43.962Z,97914.38
2022-08-26T18:35:11.651Z,97916.75
2022-08-26T18:37:38.557Z,97906.75
2022-08-26T18:40:07.927Z,97915.94
2022-08-26T18:42:35.255Z,97910.13
2022-08-26T18:45:02.874Z,97914.28
2022-08-26T18:47:30.124Z,97914.72
2022-08-26T18:49:56.831Z,97913.19
2022-08-26T18:52:24.033Z,97916.53
2022-08-26T18:54:50.945Z,97917.66
2022-08-26T18:57:17.563Z,97926.69
2022-08-26T18:59:44.262Z,97916.41
2022-08-26T19:02:11.089Z,97925.72
2022-08-26T19:04:41.090Z,97923.78
2022-08-26T19:07:08.050Z,97931.53
2022-08-26T19:09:36.042Z,97929.59
2022-08-26T19:12:04.150Z,97930.31
2022-08-26T19:14:32.609Z,97932.94
2022-08-26T19:17:01.206Z,97933.22
2022-08-26T19:19:28.008Z,97932.06
2022-08-26T19:21:55.405Z,97934.97
2022-08-26T19:24:28.130Z,97936.22
2022-08-26T19:26:57.948Z,97935.78
2022-08-26T19:29:28.063Z,97936.19
2022-08-26T19:31:55.057Z,97946.16
2022-08-26T19:34:21.852Z,97948.66
2022-08-26T19:36:49.321Z,97948.66
2022-08-26T19:39:16.110Z,97944.72
2022-08-26T19:41:42.909Z,97953.31
2022-08-26T19:44:35.090Z,97952.03
2022-08-26T19:47:03.711Z,97958.50
2022-08-26T19:49:30.839Z,97958.47
2022-08-26T19:51:57.543Z,97960.03
2022-08-26T19:54:24.204Z,97965.38
2022-08-26T19:56:51.022Z,97967.28
2022-08-26T19:59:18.188Z,97964.56
2022-08-26T20:01:44.931Z,97964.00
2022-08-26T20:04:12.512Z,97975.97
2022-08-26T20:06:39.757Z,97971.38
2022-08-26T20:09:06.445Z,97978.19
2022-08-26T20:11:33.128Z,97984.03
2022-08-26T20:13:59.793Z,97991.22
2022-08-26T20:16:26.552Z,97988.31
2022-08-26T20:19:11.774Z,97993.84
2022-08-26T20:21:40.176Z,97992.28
2022-08-26T20:24:21.252Z,97985.06
2022-08-26T20:26:48.185Z,97992.13
2022-08-26T20:29:17.665Z,97994.94
2022-08-26T20:31:45.191Z,97999.84
2022-08-26T20:34:13.610Z,97997.22
2022-08-26T20:36:41.176Z,98000.16
2022-08-26T20:39:08.972Z,98002.78
2022-08-26T20:41:35.667Z,98001.22
2022-08-26T20:44:03.058Z,98000.38
2022-08-26T20:46:29.799Z,97999.00
2022-08-26T20:48:57.721Z,97995.38
2022-08-26T20:51:25.098Z,97991.50
2022-08-26T20:53:51.947Z,97987.38
2022-08-26T20:56:25.031Z,97995.06
2022-08-26T20:58:54.194Z,97991.72
2022-08-26T21:01:24.444Z,97986.72
2022-08-26T21:03:53.049Z,97989.50
2022-08-26T21:06:19.798Z,97986.56
2022-08-26T21:08:48.501Z,97981.88
2022-08-26T21:11:17.375Z,97984.50
2022-08-26T21:14:03.820Z,97978.53
2022-08-26T21:16:31.691Z,97983.03
2022-08-26T21:18:58.427Z,97977.50
2022-08-26T21:21:27.652Z,97974.16
2022-08-26T21:23:54.959Z,97968.63
2022-08-26T21:26:22.724Z,97962.03
2022-08-26T21:28:49.672Z,97962.81
2022-08-26T21:31:19.214Z,97971.22
2022-08-26T21:33:46.141Z,97970.78
2022-08-26T21:36:13.858Z,97968.03
2022-08-26T21:38:41.627Z,97963.56
2022-08-26T21:41:12.979Z,97946.16
2022-08-26T21:43:41.896Z,97948.06
2022-08-26T21:46:16.406Z,97939.25
2022-08-26T21:48:47.687Z,97939.47
2022-08-26T21:51:19.793Z,97936.38
2022-08-26T21:53:47.150Z,97936.50
2022-08-26T21:56:17.911Z,97938.56
2022-08-26T21:58:44.984Z,97942.41
2022-08-26T22:01:15.038Z,97938.25
2022-08-26T22:03:47.334Z,97938.81
2022-08-26T22:06:17.514Z,97940.97
2022-08-26T22:08:44.254Z,97943.13
2022-08-26T22:11:11.609Z,97939.22
2022-08-26T22:13:40.345Z,97938.31
2022-08-26T22:16:08.177Z,97932.69
2022-08-26T22:18:36.029Z,97933.06
2022-08-26T22:21:07.170Z,97941.88
2022-08-26T22:23:35.897Z,97940.81
2022-08-26T22:26:03.236Z,97935.47
2022-08-26T22:28:29.975Z,97940.88
2022-08-26T22:30:56.741Z,97940.41
2022-08-26T22:33:24.713Z,97933.88
2022-08-26T22:35:53.146Z,97931.16
2022-08-26T22:38:21.180Z,97933.06
2022-08-26T22:40:50.967Z,97933.41
2022-08-26T22:43:18.879Z,97926.75
2022-08-26T22:45:48.614Z,97922.69
2022-08-26T22:48:18.878Z,97924.94
2022-08-26T22:50:47.217Z,97931.25
2022-08-26T22:53:15.653Z,97934.00
2022-08-26T22:55:43.562Z,97931.84
2022-08-26T22:58:11.764Z,97930.91
2022-08-26T23:00:40.263Z,97936.19
2022-08-26T23:03:07.274Z,97934.13
2022-08-26T23:05:34.269Z,97938.53
2022-08-26T23:08:02.089Z,97932.13
2022-08-26T23:10:28.802Z,97932.94
2022-08-26T23:12:55.749Z,97929.63
2022-08-26T23:15:22.578Z,97932.00
2022-08-26T23:17:55.884Z,97929.84
2022-08-26T23:20:27.380Z,97932.59
2022-08-26T23:22:54.661Z,97924.50
2022-08-26T23:25:22.459Z,97933.78
2022-08-26T23:27:52.662Z,97920.44
2022-08-26T23:30:23.721Z,97931.16
2022-08-26T23:32:50.519Z,97919.59
2022-08-26T23:35:20.148Z,97921.75
2022-08-26T23:37:50.098Z,97922.31
2022-08-26T23:40:29.453Z,97923.41
2022-08-26T23:42:58.259Z,97925.56
2022-08-26T23:45:26.730Z,97923.91
2022-08-26T23:47:54.333Z,97919.72
2022-08-26T23:50:44.063Z,97918.41
2022-08-26T23:53:11.402Z,97921.59
2022-08-26T23:55:39.470Z,97920.69
2022-08-26T23:58:06.924Z,97909.72
